Time;durP1;ratioP1;P1;durP2;ratioP2;P2;SDS_P1;SDS_P2;PMS_P1;PMS_P2;Temp;Humidity;BMP_temperature;BMP_pressure;BME280_temperature;BME280_humidity;BME280_pressure;Samples;Min_cycle;Max_cycle;Signal;HPM_P1;HPM_P2
2022/04/29 00:01:42;;;;;;;12.05;7.15;;;;;;;14.53;44.51;102890.00;6337227;22;20021;-66
2022/04/29 00:04:09;;;;;;;11.45;7.10;;;;;;;14.47;44.61;102885.81;6337160;22;20018;-67
2022/04/29 00:06:36;;;;;;;8.02;6.03;;;;;;;14.42;44.66;102882.47;6337216;22;20010;-67
2022/04/29 00:09:03;;;;;;;11.57;6.47;;;;;;;14.38;44.49;102882.69;6338967;22;20010;-66
2022/04/29 00:11:33;;;;;;;11.85;6.15;;;;;;;14.36;44.64;102880.09;6286030;22;20064;-67
2022/04/29 00:14:00;;;;;;;8.20;6.57;;;;;;;14.35;44.75;102878.34;6311210;22;20452;-66
2022/04/29 00:16:27;;;;;;;11.68;6.03;;;;;;;14.35;45.01;102877.47;6339222;22;20011;-67
2022/04/29 00:18:54;;;;;;;11.68;7.18;;;;;;;14.32;44.90;102876.69;6339675;22;20014;-67
2022/04/29 00:21:23;;;;;;;10.55;6.55;;;;;;;14.28;44.75;102869.69;6311543;22;20037;-65
2022/04/29 00:23:50;;;;;;;9.57;6.57;;;;;;;14.26;44.90;102863.50;6339481;22;20018;-66
2022/04/29 00:26:16;;;;;;;14.57;6.40;;;;;;;14.23;44.89;102862.78;6339989;22;20018;-65
2022/04/29 00:28:43;;;;;;;9.13;6.10;;;;;;;14.20;44.87;102854.84;6311971;22;20341;-65
2022/04/29 00:31:14;;;;;;;13.70;7.45;;;;;;;14.17;44.95;102850.47;6311752;22;20387;-65
2022/04/29 00:33:40;;;;;;;12.48;6.47;;;;;;;14.15;45.05;102854.22;6339141;22;20657;-66
2022/04/29 00:36:07;;;;;;;11.40;6.05;;;;;;;14.09;45.22;102852.69;6339119;22;20010;-65
2022/04/29 00:38:34;;;;;;;8.43;6.20;;;;;;;14.05;45.45;102852.94;6339612;22;20514;-65
2022/04/29 00:41:05;;;;;;;12.30;6.40;;;;;;;14.00;45.24;102854.06;6339431;22;20018;-66
2022/04/29 00:43:32;;;;;;;13.50;7.28;;;;;;;13.97;45.30;102851.53;6339578;22;20010;-67
2022/04/29 00:45:58;;;;;;;12.70;6.55;;;;;;;13.95;45.40;102853.44;6311664;22;20441;-66
2022/04/29 00:48:25;;;;;;;11.93;6.30;;;;;;;13.92;45.46;102845.50;6339050;22;20021;-66
2022/04/29 00:50:54;;;;;;;9.90;6.78;;;;;;;13.88;45.39;102846.63;6311419;22;20015;-66
2022/04/29 00:53:23;;;;;;;13.50;6.25;;;;;;;13.83;45.59;102854.09;6337862;22;20019;-65
2022/04/29 00:55:50;;;;;;;15.50;7.32;;;;;;;13.81;45.53;102858.69;6338652;22;20021;-66
2022/04/29 00:58:31;;;;;;;11.52;6.75;;;;;;;13.77;45.66;102849.00;6311415;22;20021;-66
2022/04/29 01:01:02;;;;;;;13.10;6.38;;;;;;;13.76;45.59;102854.50;6338485;22;20037;-65
2022/04/29 01:03:30;;;;;;;10.93;6.60;;;;;;;13.73;45.48;102842.03;6339045;22;20039;-66
2022/04/29 01:05:56;;;;;;;9.60;6.47;;;;;;;13.68;45.57;102836.88;6338252;22;20325;-65
2022/04/29 01:08:23;;;;;;;15.48;6.97;;;;;;;13.67;45.80;102842.34;6338812;22;20061;-65
2022/04/29 01:10:51;;;;;;;10.30;6.60;;;;;;;13.66;46.03;102833.38;6310907;22;20014;-65
2022/04/29 01:13:18;;;;;;;11.90;6.43;;;;;;;13.64;45.88;102834.41;6338121;22;20045;-65
2022/04/29 01:15:45;;;;;;;12.75;6.47;;;;;;;13.62;45.88;102837.19;6310909;22;20489;-66
2022/04/29 01:18:13;;;;;;;17.70;7.22;;;;;;;13.60;45.77;102832.81;6311544;22;20478;-65
2022/04/29 01:20:44;;;;;;;12.02;6.57;;;;;;;13.57;46.06;102844.66;6338081;22;20015;-65
2022/04/29 01:23:12;;;;;;;10.35;7.10;;;;;;;13.56;46.06;102839.34;6337715;22;20017;-66
2022/04/29 01:25:40;;;;;;;9.40;6.80;;;;;;;13.55;46.21;102835.78;6310809;22;20090;-66
2022/04/29 01:28:08;;;;;;;12.82;6.85;;;;;;;13.53;46.26;102832.28;6285210;22;20014;-66
2022/04/29 01:30:44;;;;;;;14.35;6.72;;;;;;;13.50;46.04;102832.44;6310556;22;20015;-65
2022/04/29 01:33:13;;;;;;;10.70;7.10;;;;;;;13.49;46.20;102833.38;6309486;22;20014;-65
2022/04/29 01:35:40;;;;;;;12.35;6.93;;;;;;;13.48;46.29;102833.47;6338222;22;20019;-65
2022/04/29 01:38:06;;;;;;;13.13;7.05;;;;;;;13.46;46.45;102829.97;6310368;22;20014;-66
2022/04/29 01:40:35;;;;;;;11.95;7.38;;;;;;;13.46;46.26;102829.97;6338076;22;20366;-66
2022/04/29 01:43:08;;;;;;;14.13;7.32;;;;;;;13.47;46.37;102823.63;6310057;22;20023;-65
2022/04/29 01:45:36;;;;;;;11.25;6.55;;;;;;;13.47;46.48;102821.78;6310707;22;20101;-65
2022/04/29 01:48:24;;;;;;;11.35;8.00;;;;;;;13.44;46.24;102816.56;6337629;22;20383;-65
2022/04/29 01:51:11;;;;;;;15.30;7.03;;;;;;;13.40;46.25;102814.09;6310430;22;20017;-65
2022/04/29 01:53:37;;;;;;;10.70;6.90;;;;;;;13.35;46.41;102807.06;6284524;22;20025;-65
2022/04/29 01:56:04;;;;;;;13.55;7.07;;;;;;;13.29;46.38;102807.41;6310505;22;20026;-65
2022/04/29 01:58:32;;;;;;;15.68;7.40;;;;;;;13.25;46.51;102808.50;6337997;22;20060;-64
2022/04/29 02:01:00;;;;;;;9.40;6.97;;;;;;;13.17;46.71;102802.63;6310118;22;20445;-65
2022/04/29 02:03:27;;;;;;;17.50;7.47;;;;;;;13.14;46.75;102801.88;6310019;22;20565;-65
2022/04/29 02:05:53;;;;;;;13.45;7.20;;;;;;;13.10;46.71;102803.84;6310280;22;20034;-65
2022/04/29 02:08:20;;;;;;;16.05;7.07;;;;;;;13.07;46.80;102800.44;6284709;22;20044;-65
2022/04/29 02:10:51;;;;;;;15.68;8.05;;;;;;;13.03;46.80;102799.72;6310072;22;20019;-65
2022/04/29 02:13:22;;;;;;;11.32;7.28;;;;;;;12.96;46.86;102799.16;6309398;22;20030;-65
2022/04/29 02:16:05;;;;;;;10.70;7.43;;;;;;;12.93;46.91;102803.84;6310566;22;20083;-65
2022/04/29 02:18:32;;;;;;;14.57;8.02;;;;;;;12.90;47.01;102803.97;6310438;22;20022;-65
2022/04/29 02:21:03;;;;;;;18.23;8.05;;;;;;;12.87;46.99;102801.44;6309902;22;20015;-65
2022/04/29 02:23:30;;;;;;;13.25;7.22;;;;;;;12.84;47.08;102794.38;6309981;22;20017;-66
2022/04/29 02:26:00;;;;;;;11.55;7.47;;;;;;;12.83;47.07;102792.63;6310501;22;20050;-65
2022/04/29 02:28:31;;;;;;;12.65;7.32;;;;;;;12.83;47.38;102795.31;6310114;22;20042;-65
2022/04/29 02:31:01;;;;;;;11.23;6.88;;;;;;;12.82;47.30;102798.09;6309825;22;20041;-65
2022/04/29 02:33:28;;;;;;;15.60;7.13;;;;;;;12.80;47.43;102802.69;6309575;22;20027;-65
2022/04/29 02:35:55;;;;;;;15.05;7.90;;;;;;;12.77;47.40;102803.72;6309699;22;20068;-65
2022/04/29 02:38:22;;;;;;;12.30;7.75;;;;;;;12.73;47.34;102799.44;6283989;22;20019;-65
2022/04/29 02:40:50;;;;;;;12.77;7.50;;;;;;;12.70;47.45;102789.66;6308997;22;20019;-64
2022/04/29 02:43:18;;;;;;;10.82;7.65;;;;;;;12.69;47.45;102789.75;6336884;22;20094;-64
2022/04/29 02:45:46;;;;;;;15.30;8.50;;;;;;;12.66;47.54;102785.38;6309874;22;20348;-64
2022/04/29 02:48:15;;;;;;;13.80;7.63;;;;;;;12.66;47.63;102782.69;6283746;22;20334;-64
2022/04/29 02:50:43;;;;;;;13.23;8.15;;;;;;;12.66;47.61;102782.69;6309799;22;20021;-65
2022/04/29 02:53:12;;;;;;;12.18;7.57;;;;;;;12.66;47.58;102782.69;6308883;22;20018;-64
2022/04/29 02:55:39;;;;;;;10.93;7.20;;;;;;;12.64;47.68;102778.31;6310281;22;20326;-64
2022/04/29 02:58:14;;;;;;;13.02;7.57;;;;;;;12.62;47.63;102788.25;6309822;22;20385;-64
2022/04/29 03:00:42;;;;;;;14.15;7.90;;;;;;;12.59;47.93;102793.81;6309628;22;20018;-64
2022/04/29 03:03:10;;;;;;;13.52;7.97;;;;;;;12.55;47.75;102790.38;6308349;22;20011;-65
2022/04/29 03:05:39;;;;;;;14.38;8.02;;;;;;;12.51;47.91;102790.59;6310335;22;20064;-64
2022/04/29 03:08:06;;;;;;;12.63;8.23;;;;;;;12.48;47.90;102790.75;6309833;22;20461;-65
2022/04/29 03:10:36;;;;;;;17.90;8.70;;;;;;;12.47;48.10;102786.31;6337512;22;20022;-64
2022/04/29 03:13:02;;;;;;;14.90;8.43;;;;;;;12.45;48.08;102781.00;6337203;22;20021;-65
2022/04/29 03:15:35;;;;;;;15.88;8.93;;;;;;;12.43;48.08;102776.63;6309414;22;20033;-64
2022/04/29 03:20:53;;;;;;;14.48;8.73;;;;;;;12.41;48.14;102787.47;6337346;22;20382;-64
2022/04/29 03:23:20;;;;;;;14.32;9.35;;;;;;;12.39;48.21;102778.59;6309092;22;20453;-64
2022/04/29 03:25:51;;;;;;;15.07;8.90;;;;;;;12.38;48.35;102784.94;6309622;22;20023;-65
2022/04/29 03:28:18;;;;;;;15.90;8.82;;;;;;;12.38;48.21;102784.94;6309236;22;20014;-66
2022/04/29 03:30:49;;;;;;;12.65;8.48;;;;;;;12.39;48.43;102786.69;6309445;22;20067;-65
2022/04/29 03:33:19;;;;;;;17.20;9.02;;;;;;;12.39;48.43;102781.28;6308453;22;20472;-65
2022/04/29 03:35:47;;;;;;;14.35;9.25;;;;;;;12.42;48.71;102778.44;6309631;22;20039;-65
2022/04/29 03:38:23;;;;;;;13.18;8.32;;;;;;;12.44;48.34;102775.69;6309602;22;20015;-64
2022/04/29 03:40:54;;;;;;;12.77;8.45;;;;;;;12.46;48.40;102777.34;6309613;22;20064;-63
2022/04/29 03:43:24;;;;;;;17.98;9.60;;;;;;;12.48;48.41;102775.47;6339338;22;20023;-64
2022/04/29 03:45:51;;;;;;;15.20;8.68;;;;;;;12.48;48.39;102770.06;6312804;22;20060;-64
2022/04/29 03:49:35;;;;;;;14.30;9.48;;;;;;;12.48;48.51;102766.50;6312840;22;20403;-65
2022/04/29 03:51:34;;;;;;;13.65;9.05;;;;;;;12.49;48.34;102752.94;6312394;22;20011;-65
2022/04/29 03:54:01;;;;;;;16.95;9.07;;;;;;;12.47;48.40;102743.19;6312055;22;20015;-65
2022/04/29 03:56:29;;;;;;;12.52;9.25;;;;;;;12.42;48.41;102748.81;6312601;22;20029;-65
2022/04/29 03:58:56;;;;;;;17.85;9.60;;;;;;;12.37;48.39;102740.06;6312570;22;20015;-65
2022/04/29 04:01:29;;;;;;;14.98;9.32;;;;;;;12.33;48.45;102743.88;6312586;22;20053;-65
2022/04/29 04:04:03;;;;;;;16.67;10.07;;;;;;;12.28;48.64;102746.78;6287859;22;20060;-64
2022/04/29 04:09:22;;;;;;;13.65;8.65;;;;;;;12.22;48.50;102763.25;6312513;22;20011;-64
2022/04/29 04:11:56;;;;;;;15.07;9.25;;;;;;;12.19;48.91;102773.28;6311965;22;20021;-65
2022/04/29 04:14:41;;;;;;;18.50;10.18;;;;;;;12.16;48.73;102779.69;6340171;22;20068;-65
2022/04/29 04:17:07;;;;;;;14.63;10.00;;;;;;;12.11;48.81;102778.16;6286751;22;20076;-65
2022/04/29 04:19:35;;;;;;;15.45;9.63;;;;;;;12.11;48.81;102780.84;6339651;22;20094;-65
2022/04/29 04:22:06;;;;;;;15.27;10.32;;;;;;;12.09;48.85;102779.09;6339709;22;20445;-65
2022/04/29 04:24:33;;;;;;;16.33;9.43;;;;;;;12.11;49.05;102778.16;6312301;22;20023;-65
2022/04/29 04:27:01;;;;;;;15.32;9.95;;;;;;;12.13;48.97;102778.97;6340172;22;20011;-65
2022/04/29 04:29:28;;;;;;;20.15;11.20;;;;;;;12.13;48.77;102771.75;6312131;22;20018;-65
2022/04/29 04:31:59;;;;;;;13.45;9.15;;;;;;;12.11;49.07;102765.56;6311848;22;20015;-65
2022/04/29 04:37:11;;;;;;;16.88;10.55;;;;;;;12.12;48.99;102756.53;6312656;22;20018;-65
2022/04/29 04:39:39;;;;;;;14.55;9.77;;;;;;;12.12;49.14;102756.53;6287082;22;20374;-65
2022/04/29 04:42:12;;;;;;;19.98;10.15;;;;;;;12.12;49.18;102766.44;6312469;22;20077;-65
2022/04/29 04:44:49;;;;;;;16.40;10.07;;;;;;;12.11;49.21;102765.56;6340093;22;20019;-64
2022/04/29 04:47:19;;;;;;;17.83;9.55;;;;;;;12.12;49.17;102751.16;6312282;22;20019;-65
2022/04/29 04:50:25;;;;;;;19.80;10.25;;;;;;;12.13;49.16;102757.41;6244568;23;20042;-64
2022/04/29 04:52:52;;;;;;;19.52;10.77;;;;;;;12.15;49.27;102760.91;6294580;22;20014;-64
2022/04/29 04:55:18;;;;;;;16.42;10.00;;;;;;;12.15;49.21;102759.09;6309751;22;20432;-64
2022/04/29 04:57:45;;;;;;;17.70;10.80;;;;;;;12.17;49.20;102757.19;6310582;22;20345;-65
2022/04/29 05:00:16;;;;;;;16.88;10.13;;;;;;;12.19;49.36;102757.13;6338966;22;20011;-64
2022/04/29 05:03:05;;;;;;;18.10;9.85;;;;;;;12.21;49.28;102764.19;6337392;22;20023;-65
2022/04/29 05:06:09;;;;;;;16.02;9.65;;;;;;;12.23;49.20;102758.72;6242819;23;20051;-65
2022/04/29 05:08:36;;;;;;;15.88;10.18;;;;;;;12.23;49.37;102761.41;6242707;23;20024;-65
2022/04/29 05:11:05;;;;;;;18.98;10.88;;;;;;;12.24;49.50;102760.47;6235373;22;20022;-64
2022/04/29 05:13:31;;;;;;;19.70;10.02;;;;;;;12.26;49.31;102766.66;6310321;22;20479;-65
2022/04/29 05:15:58;;;;;;;15.60;9.93;;;;;;;12.27;49.51;102771.09;6310364;22;20019;-64
2022/04/29 05:18:30;;;;;;;16.08;9.88;;;;;;;12.30;49.40;102765.56;6337547;22;20475;-65
2022/04/29 05:21:15;;;;;;;15.60;10.15;;;;;;;12.30;49.41;102763.75;6337751;22;20096;-66
2022/04/29 05:23:42;;;;;;;18.38;11.82;;;;;;;12.29;49.54;102759.31;6310296;22;20014;-65
2022/04/29 05:26:31;;;;;;;17.20;10.57;;;;;;;12.30;49.37;102771.81;6300897;22;20487;-65
2022/04/29 05:29:18;;;;;;;16.90;10.98;;;;;;;12.31;49.35;102767.31;6337606;22;20026;-65
2022/04/29 05:32:23;;;;;;;15.93;10.23;;;;;;;12.30;49.51;102769.13;6337506;22;20362;-65
2022/04/29 05:35:09;;;;;;;;;;;;;;;12.26;49.42;102763.97;6338767;22;20026;-65
2022/04/29 05:37:55;;;;;;;17.65;10.60;;;;;;;12.29;49.28;102766.50;6338132;22;20232;-65
2022/04/29 05:43:14;;;;;;;16.73;11.07;;;;;;;12.28;49.43;102768.34;6337464;22;20015;-65
2022/04/29 05:45:41;;;;;;;22.77;10.68;;;;;;;12.30;49.56;102766.44;6338100;22;20010;-65
2022/04/29 05:48:07;;;;;;;24.33;11.05;;;;;;;12.33;49.61;102774.38;6310449;22;20026;-65
2022/04/29 05:50:39;;;;;;;16.63;10.15;;;;;;;12.35;49.68;102772.47;6309689;22;20019;-64
2022/04/29 05:53:05;;;;;;;15.32;9.60;;;;;;;12.34;49.61;102768.03;6337327;22;20010;-65
2022/04/29 05:55:34;;;;;;;17.90;12.15;;;;;;;12.35;49.64;102774.31;6310361;22;20105;-65
2022/04/29 05:58:16;;;;;;;17.55;11.20;;;;;;;12.37;49.72;102777.78;6310499;22;20019;-66
2022/04/29 06:00:58;;;;;;;24.63;11.30;;;;;;;12.36;49.72;102776.03;6310448;22;20014;-65
2022/04/29 06:03:25;;;;;;;23.08;11.82;;;;;;;12.38;49.60;102779.53;6309518;22;20443;-64
2022/04/29 06:05:52;;;;;;;22.65;11.85;;;;;;;12.40;49.69;102783.91;6310279;22;20050;-65
2022/04/29 06:08:18;;;;;;;19.17;11.20;;;;;;;12.41;49.77;102777.56;6311795;22;20337;-65
2022/04/29 06:10:52;;;;;;;17.30;10.93;;;;;;;12.44;49.58;102771.16;6311603;22;20015;-65
2022/04/29 06:13:18;;;;;;;22.65;11.02;;;;;;;12.47;49.85;102773.72;6309670;22;20464;-65
2022/04/29 06:16:06;;;;;;;18.42;10.20;;;;;;;12.50;49.96;102778.94;6273295;22;20023;-65
2022/04/29 06:18:55;;;;;;;19.05;10.77;;;;;;;12.55;49.81;102778.72;6337336;22;20106;-64
2022/04/29 06:21:44;;;;;;;20.17;10.55;;;;;;;12.55;49.75;102770.63;6309643;22;20017;-64
2022/04/29 06:24:18;;;;;;;19.55;10.55;;;;;;;12.54;49.84;102780.56;6310439;22;20105;-64
2022/04/29 06:26:44;;;;;;;17.48;10.85;;;;;;;12.53;49.96;102786.88;6309855;22;20022;-64
2022/04/29 06:29:12;;;;;;;25.88;11.38;;;;;;;12.52;50.08;102787.84;6309552;22;20506;-65
2022/04/29 06:31:41;;;;;;;20.17;9.88;;;;;;;12.54;50.09;102788.63;6309157;22;20019;-66
2022/04/29 06:34:37;;;;;;;21.25;10.98;;;;;;;12.60;50.19;102793.72;6292242;22;20029;-64
2022/04/29 06:37:06;;;;;;;21.48;10.85;;;;;;;12.63;49.99;102800.78;6309520;22;20072;-66
2022/04/29 06:39:37;;;;;;;16.83;10.50;;;;;;;12.65;50.05;102785.44;6284708;22;20019;-67
2022/04/29 06:42:42;;;;;;;18.13;10.63;;;;;;;12.69;50.12;102789.75;6336346;22;20022;-67
2022/04/29 06:45:26;;;;;;;22.58;11.23;;;;;;;12.75;49.95;102799.34;6336619;22;20096;-67
2022/04/29 06:48:02;;;;;;;;;;;;;;;12.75;50.13;102796.66;6338077;22;20019;-67
2022/04/29 06:50:52;;;;;;;18.40;10.32;;;;;;;12.81;49.92;102793.66;6337520;22;19929;-66
2022/04/29 06:53:40;;;;;;;25.05;11.45;;;;;;;12.82;49.96;102798.97;6337284;22;20079;-67
2022/04/29 06:56:09;;;;;;;18.25;10.77;;;;;;;12.85;50.09;102806.03;6309103;22;20041;-67
2022/04/29 06:58:36;;;;;;;18.60;10.30;;;;;;;12.89;50.10;102807.63;6309151;22;20350;-66
2022/04/29 07:01:08;;;;;;;25.73;11.07;;;;;;;12.92;50.06;102802.97;6309407;22;20029;-67
2022/04/29 07:03:39;;;;;;;16.52;10.02;;;;;;;12.97;50.21;102794.63;6309869;22;20269;-67
2022/04/29 07:06:06;;;;;;;18.80;10.35;;;;;;;13.01;50.07;102799.78;6337248;22;20018;-67
2022/04/29 07:08:33;;;;;;;23.95;10.80;;;;;;;13.05;50.31;102796.00;6308980;22;20485;-67
2022/04/29 07:11:31;;;;;;;16.27;10.07;;;;;;;13.11;50.15;102793.94;6336828;22;20532;-67
2022/04/29 07:14:05;;;;;;;17.40;10.35;;;;;;;13.16;50.00;102799.97;6336818;22;20014;-67
2022/04/29 07:16:42;;;;;;;17.30;10.48;;;;;;;13.21;50.00;102803.34;6308723;22;20022;-67
2022/04/29 07:19:16;;;;;;;19.83;10.02;;;;;;;13.26;49.95;102809.38;6337569;22;20034;-67
2022/04/29 07:21:45;;;;;;;19.73;10.60;;;;;;;13.30;50.08;102802.88;6309029;22;20102;-67
2022/04/29 07:24:12;;;;;;;22.17;10.45;;;;;;;13.35;50.09;102801.69;6307862;22;20107;-68
2022/04/29 07:26:40;;;;;;;16.25;10.25;;;;;;;13.39;50.03;102805.13;6309350;22;20468;-67
2022/04/29 07:29:10;;;;;;;22.35;10.32;;;;;;;13.48;50.07;102806.47;6309288;22;20018;-67
2022/04/29 07:31:43;;;;;;;17.10;10.55;;;;;;;13.55;50.07;102803.38;6308629;22;20014;-64
2022/04/29 07:43:06;;;;;;;15.98;10.25;;;;;;;14.05;50.12;102804.31;6309141;22;20044;-63
2022/04/29 07:45:36;;;;;;;19.75;10.55;;;;;;;14.14;49.64;102806.53;6309498;22;20353;-64
2022/04/29 07:48:34;;;;;;;15.15;10.32;;;;;;;14.29;49.69;102797.59;6336994;22;20026;-63
2022/04/29 07:51:03;;;;;;;19.52;10.38;;;;;;;14.41;49.47;102798.72;6336583;22;20057;-64
2022/04/29 07:53:30;;;;;;;12.98;8.95;;;;;;;14.52;49.41;102799.91;6283692;22;20015;-66
2022/04/29 07:55:57;;;;;;;19.10;10.35;;;;;;;14.63;49.38;102799.28;6308929;22;20023;-63
2022/04/29 07:58:23;;;;;;;20.85;11.00;;;;;;;14.74;49.25;102796.84;6308965;22;20015;-63
2022/04/29 08:00:55;;;;;;;14.65;10.02;;;;;;;14.85;49.10;102797.09;6308754;22;20050;-63
2022/04/29 08:03:40;;;;;;;17.10;10.23;;;;;;;14.98;49.08;102805.41;6309175;22;20019;-63
2022/04/29 08:06:09;;;;;;;14.10;9.40;;;;;;;15.02;48.70;102812.38;6309358;22;20500;-63
2022/04/29 08:08:40;;;;;;;16.42;9.85;;;;;;;15.09;48.72;102808.34;6283725;22;20011;-63
2022/04/29 08:11:08;;;;;;;20.02;9.77;;;;;;;15.17;48.43;102808.75;6309155;22;20448;-63
2022/04/29 08:13:48;;;;;;;19.17;10.05;;;;;;;15.26;48.49;102805.50;6309454;22;20027;-63
2022/04/29 08:17:01;;;;;;;17.73;9.90;;;;;;;15.39;48.15;102805.66;6337139;22;20076;-63
2022/04/29 08:19:33;;;;;;;15.05;10.43;;;;;;;15.46;48.15;102801.59;6309245;22;20023;-64
2022/04/29 08:22:11;;;;;;;17.05;9.55;;;;;;;15.55;48.11;102797.47;6309353;22;20093;-65
2022/04/29 08:24:38;;;;;;;16.67;9.63;;;;;;;15.66;48.08;102802.28;6309287;22;20307;-69
2022/04/29 08:27:05;;;;;;;16.13;9.65;;;;;;;15.74;48.09;102800.84;6336079;22;20015;-65
2022/04/29 08:29:32;;;;;;;15.05;10.30;;;;;;;15.82;47.86;102803.06;6285123;22;20019;-66
2022/04/29 08:32:04;;;;;;;20.75;10.45;;;;;;;15.87;47.77;102807.25;6310911;22;20049;-66
2022/04/29 08:34:33;;;;;;;14.43;9.83;;;;;;;15.92;47.48;102808.78;6311610;22;20015;-65
2022/04/29 08:37:03;;;;;;;18.85;9.55;;;;;;;15.96;47.62;102804.94;6311559;22;20346;-66
2022/04/29 08:39:34;;;;;;;17.95;10.32;;;;;;;16.00;47.48;102807.34;6286801;22;20553;-68
2022/04/29 08:42:10;;;;;;;15.95;9.98;;;;;;;16.04;47.45;102800.75;6311217;22;20076;-66
2022/04/29 08:44:40;;;;;;;20.20;10.25;;;;;;;16.10;47.25;102803.09;6311568;22;20072;-66
2022/04/29 08:47:30;;;;;;;14.00;10.10;;;;;;;16.19;47.35;102807.91;6310873;22;20518;-65
2022/04/29 08:50:30;;;;;;;16.05;10.50;;;;;;;16.29;47.18;102805.50;6311020;22;20019;-66
2022/04/29 08:52:57;;;;;;;15.38;10.63;;;;;;;16.41;47.25;102810.16;6338761;22;20463;-65
2022/04/29 09:01:01;;;;;;;;;;;;;;;16.53;46.74;102811.19;6316305;22;20015;-65
2022/04/29 09:03:28;;;;;;;22.00;11.23;;;;;;;16.62;46.58;102815.16;6338783;22;19968;-65
2022/04/29 09:05:56;;;;;;;16.92;11.00;;;;;;;16.66;46.59;102820.31;6338935;22;20437;-65
2022/04/29 09:08:24;;;;;;;19.67;11.40;;;;;;;16.74;46.74;102815.25;6339232;22;20013;-64
2022/04/29 09:10:52;;;;;;;16.77;10.18;;;;;;;16.80;46.74;102805.84;6338948;22;20041;-64
2022/04/29 09:13:27;;;;;;;18.38;10.55;;;;;;;16.87;46.33;102809.00;6338405;22;20072;-65
2022/04/29 09:15:57;;;;;;;16.73;10.63;;;;;;;16.91;46.35;102805.13;6338701;22;20387;-65
2022/04/29 09:18:34;;;;;;;16.83;10.40;;;;;;;16.98;46.62;102810.03;6311350;22;20019;-65
2022/04/29 09:21:04;;;;;;;19.58;11.02;;;;;;;17.06;46.11;102807.69;6338625;22;20014;-65
2022/04/29 09:23:31;;;;;;;19.05;11.68;;;;;;;17.10;45.85;102806.53;6311106;22;20398;-65
2022/04/29 09:26:24;;;;;;;17.58;10.40;;;;;;;17.20;45.75;102800.47;6338672;22;20084;-65
2022/04/29 09:29:13;;;;;;;19.52;10.38;;;;;;;17.29;45.71;102799.84;6338679;22;20026;-66
2022/04/29 09:31:57;;;;;;;18.40;11.05;;;;;;;17.32;45.94;102802.34;6310894;22;20027;-65
2022/04/29 09:34:53;;;;;;;20.30;10.30;;;;;;;17.36;45.75;102795.72;6338415;22;20103;-66
2022/04/29 09:37:23;;;;;;;20.10;10.45;;;;;;;17.41;45.78;102793.56;6338434;22;20114;-66
2022/04/29 09:40:00;;;;;;;19.23;10.20;;;;;;;17.47;45.51;102785.88;6338695;22;20014;-67
2022/04/29 09:42:40;;;;;;;19.05;10.88;;;;;;;17.60;45.87;102793.16;6339009;22;20429;-66
2022/04/29 09:45:24;;;;;;;13.23;9.45;;;;;;;17.71;45.55;102782.44;6311164;22;20042;-66
2022/04/29 09:47:54;;;;;;;18.70;10.15;;;;;;;17.79;45.36;102783.63;6311168;22;20380;-66
2022/04/29 09:50:22;;;;;;;16.23;9.25;;;;;;;17.86;45.30;102775.06;6338624;22;20323;-66
2022/04/29 09:52:49;;;;;;;14.48;9.77;;;;;;;17.92;44.95;102777.34;6338650;22;20445;-66
2022/04/29 09:55:18;;;;;;;15.35;9.05;;;;;;;17.95;44.74;102771.69;6338700;22;20022;-66
2022/04/29 09:57:52;;;;;;;16.05;9.15;;;;;;;18.00;45.08;102772.25;6338462;22;20349;-66
2022/04/29 10:00:20;;;;;;;17.60;9.63;;;;;;;18.04;44.67;102782.78;6338832;22;20404;-67
2022/04/29 10:02:49;;;;;;;16.05;10.02;;;;;;;18.08;44.84;102784.31;6311031;22;20015;-67
2022/04/29 10:05:19;;;;;;;15.73;9.15;;;;;;;18.16;44.96;102782.88;6311426;22;20015;-68
2022/04/29 10:07:54;;;;;;;13.05;9.75;;;;;;;18.26;44.90;102782.09;6287004;22;20010;-66
2022/04/29 10:10:24;;;;;;;15.00;9.52;;;;;;;18.36;44.70;102790.44;6311744;22;20015;-64
2022/04/29 10:12:51;;;;;;;15.88;8.88;;;;;;;18.43;44.66;102783.56;6310965;22;20060;-66
2022/04/29 10:15:37;;;;;;;;;;;;;;;18.49;44.58;102795.84;6339650;22;20464;-67
2022/04/29 10:21:37;;;;;;;15.60;8.38;;;;;;;18.51;44.34;102783.00;6336704;22;20084;-66
2022/04/29 10:24:04;;;;;;;15.15;9.27;;;;;;;18.46;43.80;102779.75;6337090;22;20314;-66
2022/04/29 10:26:34;;;;;;;12.55;8.35;;;;;;;18.41;43.93;102767.38;6337823;22;20010;-66
2022/04/29 10:29:02;;;;;;;12.63;8.48;;;;;;;18.36;43.90;102779.56;6309729;22;20026;-67
2022/04/29 10:31:29;;;;;;;16.80;8.25;;;;;;;18.31;43.87;102788.06;6337109;22;20014;-67
2022/04/29 10:34:31;;;;;;;15.52;8.63;;;;;;;18.29;44.26;102783.72;6337160;22;20019;-68
2022/04/29 10:37:01;;;;;;;15.30;8.40;;;;;;;18.29;43.90;102784.59;6309051;22;20022;-66
2022/04/29 10:39:29;;;;;;;12.50;8.10;;;;;;;18.29;43.82;102781.88;6336739;22;20025;-67
2022/04/29 10:42:21;;;;;;;17.50;8.40;;;;;;;18.28;43.84;102787.41;6309585;22;20025;-66
2022/04/29 10:45:01;;;;;;;18.25;8.88;;;;;;;18.27;43.58;102789.28;6309754;22;20064;-66
2022/04/29 10:47:47;;;;;;;15.15;8.77;;;;;;;18.30;44.00;102788.19;6309550;22;20023;-66
2022/04/29 10:50:37;;;;;;;14.85;8.60;;;;;;;18.32;43.85;102787.09;6309420;22;20011;-66
2022/04/29 10:53:23;;;;;;;12.27;8.95;;;;;;;18.33;43.47;102788.81;6335848;22;20522;-66
2022/04/29 10:56:30;;;;;;;17.02;8.40;;;;;;;18.31;43.65;102773.59;6308929;22;20030;-67
2022/04/29 10:59:12;;;;;;;17.88;8.57;;;;;;;18.34;43.33;102771.53;6337163;22;20041;-66
2022/04/29 11:02:07;;;;;;;14.27;8.88;;;;;;;18.35;43.39;102778.69;6337241;22;20011;-67
2022/04/29 11:04:34;;;;;;;16.30;9.10;;;;;;;18.38;43.27;102774.88;6322149;22;20354;-67
2022/04/29 11:07:01;;;;;;;14.77;8.68;;;;;;;18.39;43.52;102765.75;6308610;22;20038;-66
2022/04/29 11:09:30;;;;;;;15.45;8.45;;;;;;;18.41;43.25;102767.38;6337841;22;20094;-66
2022/04/29 11:11:59;;;;;;;14.68;8.45;;;;;;;18.41;43.42;102753.75;6337855;22;20015;-66
2022/04/29 11:15:08;;;;;;;12.60;8.15;;;;;;;18.44;43.20;102755.38;6212674;23;20029;-67
2022/04/29 11:18:16;;;;;;;16.17;8.45;;;;;;;18.42;43.27;102757.34;6213139;23;20020;-66
2022/04/29 11:20:48;;;;;;;10.57;7.80;;;;;;;18.43;43.24;102746.34;6284948;22;20053;-67
2022/04/29 11:26:11;;;;;;;13.85;7.45;;;;;;;18.45;43.14;102746.25;6315787;22;20306;-67
2022/04/29 11:28:43;;;;;;;17.58;7.47;;;;;;;18.43;42.70;102750.94;6310679;22;20094;-67
2022/04/29 11:31:40;;;;;;;12.20;7.82;;;;;;;18.43;42.82;102756.38;6338025;22;20073;-67
2022/04/29 11:34:13;;;;;;;18.35;7.28;;;;;;;18.43;42.50;102743.63;6310307;22;20070;-66
2022/04/29 11:36:41;;;;;;;11.60;7.55;;;;;;;18.45;42.52;102739.94;6338151;22;20011;-66
2022/04/29 11:39:09;;;;;;;12.10;6.97;;;;;;;18.47;42.25;102740.69;6337774;22;20015;-67
2022/04/29 11:41:55;;;;;;;15.90;7.60;;;;;;;18.47;42.19;102743.41;6310134;22;20029;-66
2022/04/29 11:44:33;;;;;;;12.32;6.78;;;;;;;18.52;42.38;102750.25;6309977;22;20034;-67
2022/04/29 11:47:01;;;;;;;12.88;7.45;;;;;;;18.56;42.36;102751.75;6338028;22;20042;-66
2022/04/29 11:49:29;;;;;;;10.02;7.65;;;;;;;18.58;42.63;102747.09;6337894;22;20475;-66
2022/04/29 11:52:20;;;;;;;11.65;7.38;;;;;;;18.57;42.31;102753.50;6337937;22;20014;-66
2022/04/29 11:54:54;;;;;;;14.38;7.18;;;;;;;18.56;42.38;102745.44;6310093;22;20011;-67
2022/04/29 11:57:22;;;;;;;11.43;6.90;;;;;;;18.55;42.23;102732.81;6337807;22;20523;-66
2022/04/29 11:59:49;;;;;;;12.13;7.55;;;;;;;18.52;42.40;102738.50;6337189;22;20484;-66
2022/04/29 12:02:29;;;;;;;18.52;7.57;;;;;;;18.51;42.38;102740.34;6312408;22;20097;-66
2022/04/29 12:05:01;;;;;;;13.30;7.95;;;;;;;18.51;42.06;102745.78;6338705;22;20045;-67
2022/04/29 12:07:38;;;;;;;23.83;8.98;;;;;;;18.51;41.94;102743.06;6339317;22;20011;-67
2022/04/29 12:10:23;;;;;;;13.55;8.45;;;;;;;18.48;42.22;102740.56;6311277;22;20038;-67
2022/04/29 12:12:58;;;;;;;16.00;8.75;;;;;;;18.49;42.09;102736.88;6311585;22;20047;-66
2022/04/29 12:15:32;;;;;;;14.95;8.20;;;;;;;18.49;42.30;102733.28;6339154;22;20018;-67
2022/04/29 12:18:01;;;;;;;11.25;8.00;;;;;;;18.53;42.59;102737.50;6338568;22;20022;-66